KIZAKSAC

Guest
Details From KIZA - SANTA YNEZ
To KSAC - Sacramento Executive
Flight Number -
Tags generated
Created
Modified
Stats Distance 250 nm / 464 km
Max Altitude 24,000 ft / 7,315 m
Waypoints 4
Social Downloads 0
Likes 0
Share VATSIM

Download

Looking for another format? Having issues loading an existing format? Contact us
Advertisement - Login to hide

Notes

Basic altitude profile: - Ascent Rate: 2500ft/min - Ascent Speed: 250kts - Cruise Altitude: 35000ft - Cruise Speed: 420kts - Descent Rate: 1500ft/min - Descent Speed: 250kts

Route

KIZA AVE Q7 JAGWA KSAC

ID Type Via Altitude Latitude Longitude Leg Dist Tot Dist Heading (true) Name
O KIZA APT - 0 ft / 0 m 34.60682˚ -120.07555˚ - 0 nm - SANTA YNEZ
AVE VOR - 21,300 ft / 6,492 m 35.64697˚ -119.97861˚ 62 nm 62 nm 4° / 4° AVENAL VORTAC
JAGWA FIX Q7 (AWY-HI) 24,000 ft / 7,315 m 37.33028˚ -120.63833˚ 105 nm 168 nm 343° / 342° -
O KSAC APT - 0 ft / 0 m 38.51264˚ -121.49319˚ 81 nm 250 nm 331° / 330° Sacramento Executive

Altitude Profile

Advertisement - Login to hide

Weather


0- 5 10 15 20 25 30 35+ Temperature / ° C

Clouds and Precipitation
Forecast for 2017-12-18 18:00 UTC. Updated an hour ago

Ground ~20,000 ft ~40,000 ft Winds

KIZA

Details ICAO KIZA
Name SANTA YNEZ
Region United States
Timezone America/Los_Angeles (UTC-8.0)
Stats Elevation 671 ft / 205 m (AMSL)
Location 34.606817° -120.075550°
Runways 1
Magnetic Variation 12.449° E

METAR

KIZA 181615Z AUTO 00000KT 10SM CLR 03/M02 A3019 RMK AO2

Decode

TAF

Not found

Departure Runways

ID Width Length Bearing (true) Bearing (mag) Surface Threshold Offset Overrun Length
08 75 ft / 23 m 2,798 ft / 853 m 98.28° 85.83° Asphalt 0 ft / 0 m 0 ft / 0 m
26 75 ft / 23 m 2,798 ft / 853 m 278.29° 265.84° Asphalt 0 ft / 0 m 0 ft / 0 m

KSAC

Details ICAO KSAC (SAC)
Name Sacramento Executive
Region United States
Timezone America/Los_Angeles (UTC-8.0)
Stats Elevation 24 ft / 7 m (AMSL)
Location 38.512642° -121.493193°
Runways 3
Magnetic Variation 13.516° E

METAR

KSAC 181553Z 26003KT 6SM BR CLR 02/02 A3024 RMK AO2 SLP239 T00170017

Decode

TAF

TAF KSAC 181120Z 1812/1912 VRB05KT P6SM FEW250

Decode

Destination Runways

ID Width Length Bearing (true) Bearing (mag) Surface Threshold Offset Overrun Length
02 151 ft / 46 m 5,507 ft / 1,679 m 33.00° 19.48° Asphalt 0 ft / 0 m 0 ft / 0 m
12 98 ft / 30 m 3,834 ft / 1,169 m 133.23° 119.71° Asphalt 0 ft / 0 m 699 ft / 213 m
16 151 ft / 46 m 3,492 ft / 1,064 m 179.61° 166.09° Asphalt 0 ft / 0 m 0 ft / 0 m
20 151 ft / 46 m 5,507 ft / 1,679 m 213.01° 199.49° Asphalt 0 ft / 0 m 0 ft / 0 m
30 98 ft / 30 m 3,834 ft / 1,169 m 313.24° 299.72° Asphalt 0 ft / 0 m 0 ft / 0 m
34 151 ft / 46 m 3,492 ft / 1,064 m 359.61° 346.09° Asphalt 0 ft / 0 m 0 ft / 0 m

Approach Navaids

Runway Type Ident Frequency Range Bearing (true) Bearing (mag) Slope Elevation
02 Localiser ISAC 110.30 MHz 18 nm / 33 km 33.01° 19.49° - 23 ft / 7 m (AMSL)
02 Glidescope ISAC 110.30 MHz 10 nm / 19 km 33.01° 19.49° 3.00° 18 ft / 5 m (AMSL)